<?xml version="1.0" encoding="utf-8"?>
<gpx xmlns:xsi="http://www.w3.org/2001/XMLSchema-instance" xmlns:xsd="http://www.w3.org/2001/XMLSchema" version="1.1" creator="Shapelink.com" xmlns="http://www.topografix.com/GPX/1/1" xmlns:gpxtpx="http://www.garmin.com/xmlschemas/TrackPointExtension/v1">
  <metadata>
    <name>Övrigt 2.17 km, 2020-07-17</name>
    <desc></desc>
    <author><name>Marian Moron</name></author> 
    <time>2020-07-17T21:25:29Z</time>
  </metadata>
  <trk>
    <name>Övrigt 2.17 km, 2020-07-17</name>
    <trkseg>
      <trkpt lat="51.229969706563" lon="4.458274355795">
        <ele>3.6</ele>
        <time>2020-07-17T21:25:29Z</time>
      </trkpt>
      <trkpt lat="51.229982698508" lon="4.458518855818">
        <ele>0</ele>
        <time>2020-07-17T21:25:57Z</time>
      </trkpt>
      <trkpt lat="51.230047322957" lon="4.458792441034">
        <ele>0</ele>
        <time>2020-07-17T21:26:22Z</time>
      </trkpt>
      <trkpt lat="51.230248404738" lon="4.458730079698">
        <ele>0</ele>
        <time>2020-07-17T21:26:52Z</time>
      </trkpt>
      <trkpt lat="51.230583345462" lon="4.458664952335">
        <ele>0</ele>
        <time>2020-07-17T21:27:20Z</time>
      </trkpt>
      <trkpt lat="51.230670852498" lon="4.458640728644">
        <ele>0.6</ele>
        <time>2020-07-17T21:27:38Z</time>
      </trkpt>
      <trkpt lat="51.230976288934" lon="4.458528914098">
        <ele>2.8</ele>
        <time>2020-07-17T21:28:12Z</time>
      </trkpt>
      <trkpt lat="51.231200756216" lon="4.458433276619">
        <ele>3.2</ele>
        <time>2020-07-17T21:28:54Z</time>
      </trkpt>
      <trkpt lat="51.231220621319" lon="4.458407628005">
        <ele>3</ele>
        <time>2020-07-17T21:29:02Z</time>
      </trkpt>
      <trkpt lat="51.231192625773" lon="4.458200511256">
        <ele>3.2</ele>
        <time>2020-07-17T21:29:26Z</time>
      </trkpt>
      <trkpt lat="51.231159768725" lon="4.457981156933">
        <ele>3.6</ele>
        <time>2020-07-17T21:29:52Z</time>
      </trkpt>
      <trkpt lat="51.231154236671" lon="4.457831288561">
        <ele>3.2</ele>
        <time>2020-07-17T21:30:24Z</time>
      </trkpt>
      <trkpt lat="51.231194218334" lon="4.457113630283">
        <ele>0</ele>
        <time>2020-07-17T21:30:56Z</time>
      </trkpt>
      <trkpt lat="51.231270996538" lon="4.456573835923">
        <ele>0</ele>
        <time>2020-07-17T21:31:22Z</time>
      </trkpt>
      <trkpt lat="51.231269571615" lon="4.456495213701">
        <ele>0</ele>
        <time>2020-07-17T21:31:26Z</time>
      </trkpt>
      <trkpt lat="51.231195140343" lon="4.456290946798">
        <ele>3.8</ele>
        <time>2020-07-17T21:31:42Z</time>
      </trkpt>
      <trkpt lat="51.23123394854" lon="4.455819464923">
        <ele>2.4</ele>
        <time>2020-07-17T21:32:04Z</time>
      </trkpt>
      <trkpt lat="51.231241827526" lon="4.455768083876">
        <ele>2</ele>
        <time>2020-07-17T21:32:07Z</time>
      </trkpt>
      <trkpt lat="51.231250460883" lon="4.455663561583">
        <ele>5</ele>
        <time>2020-07-17T21:32:14Z</time>
      </trkpt>
      <trkpt lat="51.231263620466" lon="4.455566499181">
        <ele>7.8</ele>
        <time>2020-07-17T21:32:22Z</time>
      </trkpt>
      <trkpt lat="51.231227829753" lon="4.454849762912">
        <ele>4.4</ele>
        <time>2020-07-17T21:32:53Z</time>
      </trkpt>
      <trkpt lat="51.231122720727" lon="4.454312483122">
        <ele>4.4</ele>
        <time>2020-07-17T21:33:20Z</time>
      </trkpt>
      <trkpt lat="51.230979893151" lon="4.453718122593">
        <ele>4.4</ele>
        <time>2020-07-17T21:33:49Z</time>
      </trkpt>
      <trkpt lat="51.230949047759" lon="4.453529613662">
        <ele>3</ele>
        <time>2020-07-17T21:33:57Z</time>
      </trkpt>
      <trkpt lat="51.230909066096" lon="4.453307158036">
        <ele>1.4</ele>
        <time>2020-07-17T21:34:09Z</time>
      </trkpt>
      <trkpt lat="51.23084754295" lon="4.452707013996">
        <ele>1.4</ele>
        <time>2020-07-17T21:34:40Z</time>
      </trkpt>
      <trkpt lat="51.230724412839" lon="4.452010729563">
        <ele>6.2</ele>
        <time>2020-07-17T21:35:12Z</time>
      </trkpt>
      <trkpt lat="51.230582758729" lon="4.451312265836">
        <ele>2.6</ele>
        <time>2020-07-17T21:35:42Z</time>
      </trkpt>
      <trkpt lat="51.230448480691" lon="4.450970116678">
        <ele>0</ele>
        <time>2020-07-17T21:36:04Z</time>
      </trkpt>
      <trkpt lat="51.230377821274" lon="4.450809603293">
        <ele>0</ele>
        <time>2020-07-17T21:36:25Z</time>
      </trkpt>
      <trkpt lat="51.230534814261" lon="4.450680186757">
        <ele>0</ele>
        <time>2020-07-17T21:36:56Z</time>
      </trkpt>
      <trkpt lat="51.230640761477" lon="4.450690580313">
        <ele>0.8</ele>
        <time>2020-07-17T21:37:10Z</time>
      </trkpt>
      <trkpt lat="51.231087684385" lon="4.450512716395">
        <ele>5.6</ele>
        <time>2020-07-17T21:37:48Z</time>
      </trkpt>
      <trkpt lat="51.231167815349" lon="4.450501819925">
        <ele>6</ele>
        <time>2020-07-17T21:37:56Z</time>
      </trkpt>
      <trkpt lat="51.231232523617" lon="4.450622267828">
        <ele>7.6</ele>
        <time>2020-07-17T21:38:07Z</time>
      </trkpt>
      <trkpt lat="51.23140158654" lon="4.451061395569">
        <ele>13</ele>
        <time>2020-07-17T21:38:53Z</time>
      </trkpt>
      <trkpt lat="51.23140829206" lon="4.45118033473">
        <ele>11.4</ele>
        <time>2020-07-17T21:39:08Z</time>
      </trkpt>
      <trkpt lat="51.231499487132" lon="4.451515443092">
        <ele>20</ele>
        <time>2020-07-17T21:39:27Z</time>
      </trkpt>
      <trkpt lat="51.231546006677" lon="4.451681656169">
        <ele>23.6</ele>
        <time>2020-07-17T21:39:36Z</time>
      </trkpt>
      <trkpt lat="51.231501247331" lon="4.451738820727">
        <ele>16</ele>
        <time>2020-07-17T21:40:04Z</time>
      </trkpt>
      <trkpt lat="51.231694198669" lon="4.452205692557">
        <ele>31.2</ele>
        <time>2020-07-17T21:40:30Z</time>
      </trkpt>
      <trkpt lat="51.231740802033" lon="4.452428315821">
        <ele>33.2</ele>
        <time>2020-07-17T21:40:49Z</time>
      </trkpt>
      <trkpt lat="51.231709705184" lon="4.452521941644">
        <ele>27.2</ele>
        <time>2020-07-17T21:41:01Z</time>
      </trkpt>
      <trkpt lat="51.231648517314" lon="4.45296065029">
        <ele>7.8</ele>
        <time>2020-07-17T21:41:32Z</time>
      </trkpt>
      <trkpt lat="51.231655139015" lon="4.453072632474">
        <ele>3.6</ele>
        <time>2020-07-17T21:41:43Z</time>
      </trkpt>
      <trkpt lat="51.231728145364" lon="4.453450488526">
        <ele>1.4</ele>
        <time>2020-07-17T21:42:07Z</time>
      </trkpt>
      <trkpt lat="51.231877007908" lon="4.454133361919">
        <ele>4.8</ele>
        <time>2020-07-17T21:42:44Z</time>
      </trkpt>
      <trkpt lat="51.231897543563" lon="4.45421961167">
        <ele>6.2</ele>
        <time>2020-07-17T21:42:49Z</time>
      </trkpt>
      <trkpt lat="51.231957222691" lon="4.454404264927">
        <ele>9.8</ele>
        <time>2020-07-17T21:43:02Z</time>
      </trkpt>
      <trkpt lat="51.232002987865" lon="4.454553798023">
        <ele>11.2</ele>
        <time>2020-07-17T21:43:13Z</time>
      </trkpt>
      <trkpt lat="51.232052189618" lon="4.455027040097">
        <ele>13</ele>
        <time>2020-07-17T21:43:38Z</time>
      </trkpt>
      <trkpt lat="51.232099212077" lon="4.455360974993">
        <ele>13.4</ele>
        <time>2020-07-17T21:43:57Z</time>
      </trkpt>
      <trkpt lat="51.232121424112" lon="4.455417971913">
        <ele>13.4</ele>
        <time>2020-07-17T21:44:16Z</time>
      </trkpt>
      <trkpt lat="51.232184791276" lon="4.455827679185">
        <ele>12.2</ele>
        <time>2020-07-17T21:44:42Z</time>
      </trkpt>
      <trkpt lat="51.232259557824" lon="4.456265130546">
        <ele>10</ele>
        <time>2020-07-17T21:45:05Z</time>
      </trkpt>
      <trkpt lat="51.232286044628" lon="4.45632598314">
        <ele>4.6</ele>
        <time>2020-07-17T21:45:28Z</time>
      </trkpt>
      <trkpt lat="51.232391656568" lon="4.456743150303">
        <ele>9.2</ele>
        <time>2020-07-17T21:45:49Z</time>
      </trkpt>
      <trkpt lat="51.232373300207" lon="4.456774163333">
        <ele>9.6</ele>
        <time>2020-07-17T21:45:51Z</time>
      </trkpt>
      <trkpt lat="51.232341616625" lon="4.45679453135">
        <ele>9.4</ele>
        <time>2020-07-17T21:45:53Z</time>
      </trkpt>
      <trkpt lat="51.2322179836" lon="4.456807188019">
        <ele>6.4</ele>
        <time>2020-07-17T21:46:12Z</time>
      </trkpt>
      <trkpt lat="51.232049758867" lon="4.456850103347">
        <ele>4.6</ele>
        <time>2020-07-17T21:46:29Z</time>
      </trkpt>
      <trkpt lat="51.231688750434" lon="4.456711215264">
        <ele>10.4</ele>
        <time>2020-07-17T21:47:11Z</time>
      </trkpt>
      <trkpt lat="51.231369819139" lon="4.456395636729">
        <ele>8.4</ele>
        <time>2020-07-17T21:47:40Z</time>
      </trkpt>
      <trkpt lat="51.231297483342" lon="4.456527651654">
        <ele>4.4</ele>
        <time>2020-07-17T21:47:52Z</time>
      </trkpt>
      <trkpt lat="51.231233613264" lon="4.457255200574">
        <ele>9.2</ele>
        <time>2020-07-17T21:48:36Z</time>
      </trkpt>
      <trkpt lat="51.231213245247" lon="4.457405823317">
        <ele>9.8</ele>
        <time>2020-07-17T21:48:44Z</time>
      </trkpt>
      <trkpt lat="51.231189943565" lon="4.457780326609">
        <ele>5.8</ele>
        <time>2020-07-17T21:49:09Z</time>
      </trkpt>
      <trkpt lat="51.231201762044" lon="4.457815614408">
        <ele>5</ele>
        <time>2020-07-17T21:49:12Z</time>
      </trkpt>
      <trkpt lat="51.231288347071" lon="4.458511060651">
        <ele>1</ele>
        <time>2020-07-17T21:49:49Z</time>
      </trkpt>
      <trkpt lat="51.231277953515" lon="4.458551545228">
        <ele>1</ele>
        <time>2020-07-17T21:49:52Z</time>
      </trkpt>
      <trkpt lat="51.231227662115" lon="4.458608625967">
        <ele>0.2</ele>
        <time>2020-07-17T21:49:59Z</time>
      </trkpt>
      <trkpt lat="51.230810243495" lon="4.458758913434">
        <ele>0</ele>
        <time>2020-07-17T21:50:53Z</time>
      </trkpt>
      <trkpt lat="51.230800939586" lon="4.458761344185">
        <ele>0</ele>
        <time>2020-07-17T21:50:54Z</time>
      </trkpt>
      <trkpt lat="51.23036306913" lon="4.45892688671">
        <ele>0</ele>
        <time>2020-07-17T21:51:32Z</time>
      </trkpt>
      <trkpt lat="51.230168441412" lon="4.45901489666">
        <ele>0</ele>
        <time>2020-07-17T21:51:50Z</time>
      </trkpt>
      <trkpt lat="51.229803493486" lon="4.459085639896">
        <ele>0</ele>
        <time>2020-07-17T21:52:54Z</time>
      </trkpt>
      <trkpt lat="51.229694444967" lon="4.458949853116">
        <ele>0</ele>
        <time>2020-07-17T21:53:06Z</time>
      </trkpt>
      <trkpt lat="51.229556311255" lon="4.459083963516">
        <ele>0</ele>
        <time>2020-07-17T21:53:20Z</time>
      </trkpt>
      <trkpt lat="51.229139647006" lon="4.459250092774">
        <ele>0</ele>
        <time>2020-07-17T21:54:19Z</time>
      </trkpt>
      <trkpt lat="51.228887435635" lon="4.45924791348">
        <ele>0</ele>
        <time>2020-07-17T21:55:09Z</time>
      </trkpt>
      <trkpt lat="51.228623070509" lon="4.459308933712">
        <ele>0.2</ele>
        <time>2020-07-17T21:55:44Z</time>
      </trkpt>
      <trkpt lat="51.228521314243" lon="4.45880115821">
        <ele>0</ele>
        <time>2020-07-17T21:56:17Z</time>
      </trkpt>
      <trkpt lat="51.228507148832" lon="4.458618181333">
        <ele>0</ele>
        <time>2020-07-17T21:56:28Z</time>
      </trkpt>
      <trkpt lat="51.228506310642" lon="4.458585575742">
        <ele>0</ele>
        <time>2020-07-17T21:56:30Z</time>
      </trkpt>
      <trkpt lat="51.228604881786" lon="4.458193051365">
        <ele>6.6</ele>
        <time>2020-07-17T21:57:05Z</time>
      </trkpt>
      <trkpt lat="51.228697920876" lon="4.458155500453">
        <ele>9</ele>
        <time>2020-07-17T21:57:16Z</time>
      </trkpt>
      <trkpt lat="51.229152219856" lon="4.458165391095">
        <ele>5.2</ele>
        <time>2020-07-17T21:58:03Z</time>
      </trkpt>
      <trkpt lat="51.229252299742" lon="4.458115854066">
        <ele>7.2</ele>
        <time>2020-07-17T21:58:14Z</time>
      </trkpt>
      <trkpt lat="51.229674831321" lon="4.457897337933">
        <ele>3.2</ele>
        <time>2020-07-17T21:59:05Z</time>
      </trkpt>
      <trkpt lat="51.229690589293" lon="4.457895158639">
        <ele>1</ele>
        <time>2020-07-17T21:59:23Z</time>
      </trkpt>
    </trkseg>
  </trk>
</gpx>